sensor_id;sensor_type;location;lat;lon;timestamp;temperature;humidity
55269;DHT22;41131;42.990;21.954;2023-03-01T18:19:00;282.20;2278.40
55269;DHT22;41131;42.990;21.954;2023-03-01T18:21:27;282.00;2278.40
55269;DHT22;41131;42.990;21.954;2023-03-01T18:23:53;281.80;2278.40
55269;DHT22;41131;42.990;21.954;2023-03-01T18:26:19;281.80;2278.40
55269;DHT22;41131;42.990;21.954;2023-03-01T18:28:47;281.80;2278.40
55269;DHT22;41131;42.990;21.954;2023-03-01T18:31:15;281.70;2278.40
55269;DHT22;41131;42.990;21.954;2023-03-01T18:33:46;281.70;2278.40
55269;DHT22;41131;42.990;21.954;2023-03-01T18:36:24;281.70;2278.40
55269;DHT22;41131;42.990;21.954;2023-03-01T18:38:51;281.70;2278.40
55269;DHT22;41131;42.990;21.954;2023-03-01T18:41:18;281.70;2278.40
55269;DHT22;41131;42.990;21.954;2023-03-01T18:43:44;281.70;2278.40
55269;DHT22;41131;42.990;21.954;2023-03-01T18:46:10;281.70;2278.40
55269;DHT22;41131;42.990;21.954;2023-03-01T18:48:35;256.80;2252.80
55269;DHT22;41131;42.990;21.954;2023-03-01T18:51:13;256.90;2252.80
55269;DHT22;41131;42.990;21.954;2023-03-01T18:53:39;256.70;2252.80
55269;DHT22;41131;42.990;21.954;2023-03-01T18:56:07;256.70;2252.80
55269;DHT22;41131;42.990;21.954;2023-03-01T18:58:33;256.60;2252.80
55269;DHT22;41131;42.990;21.954;2023-03-01T19:00:59;256.60;2252.80
55269;DHT22;41131;42.990;21.954;2023-03-01T19:03:26;256.60;2252.80
55269;DHT22;41131;42.990;21.954;2023-03-01T19:05:53;256.70;2252.80
55269;DHT22;41131;42.990;21.954;2023-03-01T19:08:19;256.60;2252.80
55269;DHT22;41131;42.990;21.954;2023-03-01T19:10:45;256.50;2252.80
55269;DHT22;41131;42.990;21.954;2023-03-01T19:13:10;256.50;2252.80
55269;DHT22;41131;42.990;21.954;2023-03-01T19:15:36;256.60;2252.80
55269;DHT22;41131;42.990;21.954;2023-03-01T19:18:02;256.60;2252.80
55269;DHT22;41131;42.990;21.954;2023-03-01T19:20:29;256.60;2252.80
55269;DHT22;41131;42.990;21.954;2023-03-01T19:22:55;256.60;2252.80
55269;DHT22;41131;42.990;21.954;2023-03-01T19:25:21;256.50;2252.80
55269;DHT22;41131;42.990;21.954;2023-03-01T19:27:47;256.40;2252.80
55269;DHT22;41131;42.990;21.954;2023-03-01T19:30:13;256.40;2252.80
55269;DHT22;41131;42.990;21.954;2023-03-01T19:32:39;256.30;2252.80
55269;DHT22;41131;42.990;21.954;2023-03-01T19:35:06;256.30;2252.80
55269;DHT22;41131;42.990;21.954;2023-03-01T19:37:33;256.30;2252.80
55269;DHT22;41131;42.990;21.954;2023-03-01T19:39:59;256.40;2252.80
55269;DHT22;41131;42.990;21.954;2023-03-01T19:42:25;256.40;2252.80
55269;DHT22;41131;42.990;21.954;2023-03-01T19:44:53;256.20;2252.80
55269;DHT22;41131;42.990;21.954;2023-03-01T19:47:19;256.20;2252.80
55269;DHT22;41131;42.990;21.954;2023-03-01T19:49:44;256.20;2252.80
55269;DHT22;41131;42.990;21.954;2023-03-01T19:52:10;256.00;2252.80
55269;DHT22;41131;42.990;21.954;2023-03-01T19:54:36;231.30;2252.80
55269;DHT22;41131;42.990;21.954;2023-03-01T19:57:01;256.00;2252.80
55269;DHT22;41131;42.990;21.954;2023-03-01T19:59:27;231.30;2252.80
55269;DHT22;41131;42.990;21.954;2023-03-01T20:01:53;231.30;2252.80
55269;DHT22;41131;42.990;21.954;2023-03-01T20:04:20;231.30;2252.80
55269;DHT22;41131;42.990;21.954;2023-03-01T20:06:46;231.30;2252.80
55269;DHT22;41131;42.990;21.954;2023-03-01T20:09:14;256.00;2252.80
55269;DHT22;41131;42.990;21.954;2023-03-01T20:11:40;231.30;2252.80
55269;DHT22;41131;42.990;21.954;2023-03-01T20:14:07;231.30;2252.80
55269;DHT22;41131;42.990;21.954;2023-03-01T20:16:39;231.30;2252.80
55269;DHT22;41131;42.990;21.954;2023-03-01T20:19:05;231.30;2252.80
55269;DHT22;41131;42.990;21.954;2023-03-01T20:21:31;231.30;2252.80
55269;DHT22;41131;42.990;21.954;2023-03-01T20:23:58;231.30;2252.80
55269;DHT22;41131;42.990;21.954;2023-03-01T21:00:57;256.30;2252.80
55269;DHT22;41131;42.990;21.954;2023-03-01T21:03:23;256.10;2252.80
